Terminal Aerodrome Forecast
Issued by NWS

Home | Current Version | Previous Version | Graphics & Text | Print | Product List | Glossary On
Versions: 1 2 3 4 5 6 7 8 9 10 11 12 13 14
000
FTUS45 KGGW 141124
TAFOLF
TAF
KOLF 141124Z 1412/1512 08008KT P6SM BKN100
     FM141500 13009KT P6SM VCSH OVC090
     FM141900 16009KT P6SM -SHRA OVC060
     FM142200 20008KT P6SM -SHRA OVC027
     FM150000 15007KT P6SM -SHRA BKN025
     FM150300 10005KT P6SM VCSH BKN035
     FM150600 10005KT P6SM SCT060=

USA.gov is the U.S. government's official web portal to all federal, state and local government web resources and services.